Time;durP1;ratioP1;P1;durP2;ratioP2;P2;SDS_P1;SDS_P2;PMS_P1;PMS_P2;Temp;Humidity;BMP_temperature;BMP_pressure;BME280_temperature;BME280_humidity;BME280_pressure;Samples;Min_cycle;Max_cycle;Signal;HPM_P1;HPM_P2
2021/09/26 00:02:09;;;;;;;9.40;4.60;;;;;;;14.22;83.46;99407.89;116490;1200;137249;-59
2021/09/26 00:04:37;;;;;;;10.40;4.80;;;;;;;14.19;83.48;99407.74;116614;1200;22334;-58
2021/09/26 00:07:05;;;;;;;7.00;4.60;;;;;;;14.19;83.37;99401.83;116498;1200;137832;-58
2021/09/26 00:09:33;;;;;;;6.20;4.10;;;;;;;14.18;83.36;99405.45;116527;1198;23062;-59
2021/09/26 00:12:01;;;;;;;10.60;6.60;;;;;;;14.19;83.28;99408.07;116540;1200;137538;-58
2021/09/26 00:14:29;;;;;;;18.60;11.80;;;;;;;14.17;83.09;99412.20;116570;1200;22175;-59
2021/09/26 00:16:58;;;;;;;21.20;12.00;;;;;;;14.15;83.06;99412.30;116613;1200;22403;-59
2021/09/26 00:19:26;;;;;;;32.90;21.40;;;;;;;14.14;83.04;99410.51;116533;1200;137841;-59
2021/09/26 00:21:54;;;;;;;44.90;25.70;;;;;;;14.13;82.94;99413.20;116581;1200;22348;-59
2021/09/26 00:24:22;;;;;;;26.20;18.90;;;;;;;14.12;82.83;99416.57;116482;1199;139747;-59
2021/09/26 00:26:50;;;;;;;28.50;15.90;;;;;;;14.09;82.63;99415.48;116584;1200;22254;-59
2021/09/26 00:29:18;;;;;;;25.00;15.70;;;;;;;14.05;82.65;99415.27;116499;1202;23288;-59
2021/09/26 00:31:46;;;;;;;20.10;12.40;;;;;;;14.03;82.64;99413.37;116492;1200;138307;-59
2021/09/26 00:34:14;;;;;;;18.60;10.20;;;;;;;14.01;82.54;99413.77;116531;1187;22427;-59
2021/09/26 00:36:42;;;;;;;20.90;11.00;;;;;;;13.97;82.54;99413.48;116519;1200;138714;-59
2021/09/26 00:39:10;;;;;;;24.30;10.40;;;;;;;13.94;82.76;99419.73;116636;1200;22316;-59
2021/09/26 00:41:38;;;;;;;15.40;9.50;;;;;;;13.95;82.81;99421.48;116565;1201;22361;-59
2021/09/26 00:44:06;;;;;;;12.80;7.50;;;;;;;13.94;82.86;99425.71;116501;1200;138710;-59
2021/09/26 00:46:34;;;;;;;15.60;7.60;;;;;;;13.93;82.97;99424.08;116648;1200;23331;-59
2021/09/26 00:49:02;;;;;;;8.60;5.80;;;;;;;13.91;83.04;99423.20;116503;1200;138543;-60
2021/09/26 00:51:30;;;;;;;10.10;5.80;;;;;;;13.91;83.14;99424.63;116541;1193;23286;-60
2021/09/26 00:53:58;;;;;;;7.30;5.10;;;;;;;13.90;83.17;99425.02;116542;1200;138789;-60
2021/09/26 00:56:26;;;;;;;7.00;4.60;;;;;;;13.90;83.26;99427.96;116566;1201;23454;-60
2021/09/26 00:58:54;;;;;;;8.60;4.50;;;;;;;13.91;83.28;99431.52;116442;1201;22430;-60
2021/09/26 01:01:22;;;;;;;9.60;4.70;;;;;;;13.89;83.34;99435.10;116469;1200;138570;-60
2021/09/26 01:03:50;;;;;;;7.90;4.90;;;;;;;13.91;83.37;99435.75;116617;1200;22997;-60
2021/09/26 01:06:37;;;;;;;7.20;5.10;;;;;;;13.91;83.33;99438.80;116436;1200;138791;-60
2021/09/26 01:09:31;;;;;;;9.20;4.70;;;;;;;13.91;83.27;99432.67;116653;1200;22420;-59
2021/09/26 01:12:08;;;;;;;9.50;4.70;;;;;;;13.89;83.23;99439.25;116416;1201;138414;-59
2021/09/26 01:14:45;;;;;;;6.80;5.00;;;;;;;13.91;83.23;99444.73;116574;1201;22374;-59
2021/09/26 01:17:20;;;;;;;;;;;;;;;13.91;83.15;99446.31;116549;1200;22399;-59
2021/09/26 01:19:56;;;;;;;8.20;4.90;;;;;;;13.91;83.16;99447.85;116500;1200;124488;-59
2021/09/26 01:22:37;;;;;;;7.80;4.60;;;;;;;13.88;83.13;99446.23;116631;1200;22527;-59
2021/09/26 01:25:10;;;;;;;8.30;4.90;;;;;;;13.88;83.04;99453.78;116356;1200;137935;-54
2021/09/26 01:28:00;;;;;;;5.80;4.80;;;;;;;13.90;82.99;99454.70;112220;1201;23823;-60
2021/09/26 01:30:46;;;;;;;8.10;5.00;;;;;;;13.91;83.05;99458.05;112108;1201;140296;-60
2021/09/26 01:33:21;;;;;;;9.00;5.20;;;;;;;13.90;82.95;99454.65;112349;1193;24891;-59
2021/09/26 01:36:03;;;;;;;8.20;5.10;;;;;;;13.89;82.89;99447.20;112127;1200;137901;-59
2021/09/26 01:38:53;;;;;;;9.30;4.80;;;;;;;13.88;82.80;99453.29;112275;1193;22709;-59
2021/09/26 01:41:45;;;;;;;7.80;4.50;;;;;;;13.86;82.82;99459.31;112228;1200;23001;-59
2021/09/26 01:44:41;;;;;;;7.10;5.10;;;;;;;13.84;82.80;99468.99;116528;1200;137625;-59
2021/09/26 01:47:10;;;;;;;6.40;4.90;;;;;;;13.81;82.83;99469.27;116556;1201;24613;-59
2021/09/26 01:49:41;;;;;;;6.80;4.30;;;;;;;13.78;82.85;99478.37;116387;1200;137932;-59
2021/09/26 01:52:13;;;;;;;9.10;4.60;;;;;;;13.76;82.78;99482.20;116551;1200;22370;-59
2021/09/26 01:54:42;;;;;;;6.80;4.60;;;;;;;13.73;82.84;99483.57;116423;1201;138025;-59
2021/09/26 01:57:09;;;;;;;6.50;4.60;;;;;;;13.72;82.93;99487.41;112927;1200;22419;-59
2021/09/26 01:59:38;;;;;;;7.50;5.10;;;;;;;13.71;82.86;99485.17;112325;1193;24132;-59
2021/09/26 02:02:06;;;;;;;9.10;5.00;;;;;;;13.69;82.54;99490.45;116204;1201;138113;-59
2021/09/26 02:04:34;;;;;;;6.70;4.00;;;;;;;13.66;82.42;99490.95;116514;1200;22353;-59
2021/09/26 02:07:02;;;;;;;8.50;4.50;;;;;;;13.64;82.38;99495.45;116448;1200;137775;-59
2021/09/26 02:09:30;;;;;;;13.10;4.50;;;;;;;13.61;82.17;99501.80;116639;1201;22221;-59
2021/09/26 02:11:58;;;;;;;7.60;4.60;;;;;;;13.56;82.03;99495.41;116322;1201;140026;-59
2021/09/26 02:14:26;;;;;;;8.60;4.60;;;;;;;13.52;82.03;99493.23;116543;1201;22463;-59
2021/09/26 02:16:54;;;;;;;6.10;4.10;;;;;;;13.48;82.14;99488.42;116538;1193;22318;-60
2021/09/26 02:19:22;;;;;;;8.60;4.00;;;;;;;13.45;82.07;99492.04;116464;1201;138046;-62
2021/09/26 02:21:50;;;;;;;9.20;4.70;;;;;;;13.42;82.07;99497.58;116507;1200;23331;-62
2021/09/26 02:24:18;;;;;;;7.00;4.60;;;;;;;13.39;82.16;99501.15;116459;1200;138048;-61
2021/09/26 02:26:46;;;;;;;6.60;4.00;;;;;;;13.35;82.16;99505.59;116465;1186;22322;-62
2021/09/26 02:29:14;;;;;;;7.70;4.90;;;;;;;13.34;82.19;99509.47;116539;1196;23131;-62
2021/09/26 02:31:42;;;;;;;8.50;4.60;;;;;;;13.31;82.29;99514.46;116488;1200;138378;-62
2021/09/26 02:34:10;;;;;;;14.30;5.60;;;;;;;13.29;82.40;99512.27;116590;1200;23160;-62
2021/09/26 02:36:38;;;;;;;6.10;4.20;;;;;;;13.28;82.49;99519.39;116488;1200;138710;-62
2021/09/26 02:39:07;;;;;;;6.50;4.50;;;;;;;13.25;82.48;99525.37;116651;1200;22483;-62
2021/09/26 02:41:40;;;;;;;9.20;4.70;;;;;;;13.22;82.61;99525.53;116902;1191;22784;-62
2021/09/26 02:44:22;;;;;;;8.30;4.40;;;;;;;13.21;82.61;99525.37;116560;1199;137853;-62
2021/09/26 02:46:57;;;;;;;8.60;4.90;;;;;;;13.19;82.54;99528.16;116734;1198;23176;-62
2021/09/26 02:49:25;;;;;;;9.10;5.00;;;;;;;13.16;82.56;99525.31;116501;1198;137976;-62
2021/09/26 02:51:53;;;;;;;10.50;4.50;;;;;;;13.15;82.57;99524.59;116681;1199;22405;-60
2021/09/26 02:54:21;;;;;;;6.80;4.20;;;;;;;13.13;82.55;99528.40;116495;1198;139167;-60
2021/09/26 02:56:49;;;;;;;9.70;3.90;;;;;;;13.10;82.57;99533.07;116457;1200;23063;-59
2021/09/26 02:59:19;;;;;;;9.00;4.90;;;;;;;13.06;82.46;99541.21;116976;1198;22322;-60
2021/09/26 03:01:49;;;;;;;14.40;4.60;;;;;;;13.02;82.56;99545.09;116730;1194;140795;-60
2021/09/26 03:04:17;;;;;;;10.50;4.20;;;;;;;12.99;82.61;99549.25;116975;1198;22537;-60
2021/09/26 03:06:46;;;;;;;11.70;4.60;;;;;;;12.95;82.53;99549.64;116766;1198;138057;-60
2021/09/26 03:09:14;;;;;;;15.80;6.30;;;;;;;12.92;82.53;99549.63;116908;1198;22430;-60
2021/09/26 03:11:42;;;;;;;9.30;4.40;;;;;;;12.88;82.54;99551.92;116967;1198;22266;-60
2021/09/26 03:14:10;;;;;;;7.80;4.60;;;;;;;12.85;82.64;99554.20;116767;1198;138638;-60
2021/09/26 03:16:38;;;;;;;11.90;5.30;;;;;;;12.83;82.72;99551.00;116928;1198;22312;-60
2021/09/26 03:19:07;;;;;;;15.20;5.80;;;;;;;12.78;82.73;99548.04;116793;1198;138278;-60
2021/09/26 03:21:35;;;;;;;12.50;5.50;;;;;;;12.74;82.92;99548.52;116731;1199;24388;-60
2021/09/26 03:24:03;;;;;;;14.40;5.30;;;;;;;12.74;82.88;99556.33;116797;1198;139350;-60
2021/09/26 03:26:31;;;;;;;7.90;4.10;;;;;;;12.72;82.93;99559.55;116895;1198;22218;-60
2021/09/26 03:28:59;;;;;;;7.50;4.30;;;;;;;12.70;82.94;99560.64;116907;1198;22394;-60
2021/09/26 03:31:27;;;;;;;14.80;5.30;;;;;;;12.69;83.08;99560.34;116784;1198;137843;-60
2021/09/26 03:33:57;;;;;;;11.90;5.30;;;;;;;12.66;83.04;99565.13;116949;1198;22351;-62
2021/09/26 03:36:25;;;;;;;10.70;4.70;;;;;;;12.65;83.00;99563.60;116798;1198;138441;-62
2021/09/26 03:38:53;;;;;;;12.50;5.10;;;;;;;12.63;83.10;99570.97;116807;1199;22352;-62
2021/09/26 03:41:21;;;;;;;9.80;5.60;;;;;;;12.62;83.17;99570.30;116915;1198;22355;-61
2021/09/26 03:43:49;;;;;;;8.70;5.00;;;;;;;12.59;83.20;99572.98;116675;1199;138850;-62
2021/09/26 03:46:17;;;;;;;10.20;5.10;;;;;;;12.58;83.37;99566.30;116656;1199;24098;-62
2021/09/26 03:48:45;;;;;;;9.40;4.80;;;;;;;12.57;83.61;99576.36;116506;1199;137801;-62
2021/09/26 03:51:14;;;;;;;13.20;5.00;;;;;;;12.56;83.59;99577.57;116733;1198;22364;-62
2021/09/26 03:53:41;;;;;;;13.30;4.60;;;;;;;12.55;83.62;99576.38;116720;1187;22393;-62
2021/09/26 03:56:10;;;;;;;15.60;5.00;;;;;;;12.54;83.66;99581.78;116520;1199;137917;-62
2021/09/26 03:58:38;;;;;;;10.50;5.50;;;;;;;12.52;83.75;99582.27;116706;1199;22541;-61
2021/09/26 04:01:06;;;;;;;10.30;6.00;;;;;;;12.52;83.77;99587.07;116478;1199;138114;-61
2021/09/26 04:03:34;;;;;;;12.10;5.10;;;;;;;12.51;83.83;99588.98;116629;1200;23493;-60
2021/09/26 04:06:05;;;;;;;9.20;5.10;;;;;;;12.50;83.78;99593.40;116510;1199;139050;-61
2021/09/26 04:08:33;;;;;;;8.80;5.50;;;;;;;12.48;83.72;99593.06;116586;1193;22320;-61
2021/09/26 04:11:01;;;;;;;12.00;4.90;;;;;;;12.45;83.73;99595.35;116617;1201;22292;-61
2021/09/26 04:13:29;;;;;;;11.00;5.00;;;;;;;12.44;83.85;99589.82;116474;1200;138266;-61
2021/09/26 04:15:57;;;;;;;15.00;6.50;;;;;;;12.44;83.86;99587.36;116591;1200;22374;-61
2021/09/26 04:18:25;;;;;;;10.70;4.80;;;;;;;12.44;83.89;99587.70;116478;1200;138285;-61
2021/09/26 04:20:53;;;;;;;8.90;4.90;;;;;;;12.44;83.90;99588.08;116607;1200;22454;-61
2021/09/26 04:23:21;;;;;;;11.20;4.80;;;;;;;12.46;83.88;99587.97;116622;1199;22239;-60
2021/09/26 04:25:49;;;;;;;9.00;5.30;;;;;;;12.46;83.83;99593.48;116549;1199;138216;-60
2021/09/26 04:28:17;;;;;;;12.90;6.20;;;;;;;12.48;83.88;99594.54;116641;1200;23404;-61
2021/09/26 04:30:45;;;;;;;9.40;4.80;;;;;;;12.50;83.97;99601.82;116502;1200;138264;-61
2021/09/26 04:33:13;;;;;;;12.20;5.20;;;;;;;12.52;84.10;99604.79;116676;1200;22231;-60
2021/09/26 04:35:41;;;;;;;12.80;5.00;;;;;;;12.55;84.07;99608.02;116587;1200;22120;-60
2021/09/26 04:38:09;;;;;;;10.30;5.60;;;;;;;12.59;83.99;99619.11;116573;1199;138148;-61
2021/09/26 04:40:40;;;;;;;7.70;4.50;;;;;;;12.63;83.90;99619.36;116575;1200;22342;-61
2021/09/26 04:43:08;;;;;;;10.10;5.10;;;;;;;12.67;83.90;99620.52;116499;1200;138600;-61
2021/09/26 04:45:36;;;;;;;10.80;5.40;;;;;;;12.70;83.81;99623.67;116806;1198;22413;-60
2021/09/26 04:48:04;;;;;;;8.00;4.60;;;;;;;12.73;83.79;99621.44;116666;1199;139388;-60
2021/09/26 04:50:33;;;;;;;11.80;5.60;;;;;;;12.74;83.67;99619.05;116815;1199;23571;-61
2021/09/26 04:53:01;;;;;;;9.80;4.50;;;;;;;12.77;83.56;99620.70;116811;1199;22308;-60
2021/09/26 04:55:29;;;;;;;9.80;4.50;;;;;;;12.79;83.55;99622.67;116632;1198;138070;-60
2021/09/26 04:57:57;;;;;;;13.30;6.00;;;;;;;12.79;83.36;99624.59;116790;1198;22530;-60
2021/09/26 05:00:25;;;;;;;10.20;4.80;;;;;;;12.79;83.28;99625.46;116651;1193;138346;-60
2021/09/26 05:02:55;;;;;;;12.40;5.70;;;;;;;12.80;83.26;99630.66;116801;1198;23112;-59
2021/09/26 05:05:23;;;;;;;11.90;5.40;;;;;;;12.80;83.32;99635.31;116322;1197;25064;-59
2021/09/26 05:07:51;;;;;;;9.10;4.50;;;;;;;12.80;83.30;99638.37;112114;1200;138578;-59
2021/09/26 05:10:19;;;;;;;14.00;5.10;;;;;;;12.81;83.16;99639.52;112477;1199;25100;-58
2021/09/26 05:12:48;;;;;;;13.40;5.10;;;;;;;12.82;83.17;99640.36;112370;1193;138732;-57
2021/09/26 05:15:16;;;;;;;12.00;5.30;;;;;;;12.82;82.90;99638.11;112430;1193;23551;-57
2021/09/26 05:17:44;;;;;;;14.20;5.50;;;;;;;12.79;82.87;99641.82;111999;1200;23940;-57
2021/09/26 05:20:12;;;;;;;13.10;7.00;;;;;;;12.76;82.87;99641.53;112183;1200;138697;-58
2021/09/26 05:22:40;;;;;;;12.80;5.20;;;;;;;12.75;82.79;99647.92;116621;1199;22389;-58
2021/09/26 05:25:09;;;;;;;13.10;4.90;;;;;;;12.74;82.80;99650.44;116646;1199;138273;-58
2021/09/26 05:27:37;;;;;;;12.80;5.10;;;;;;;12.73;82.84;99650.75;116809;1199;22122;-58
2021/09/26 05:30:06;;;;;;;10.00;4.50;;;;;;;12.73;82.35;99654.91;116623;1197;138935;-58
2021/09/26 05:32:35;;;;;;;13.10;4.90;;;;;;;12.70;82.24;99655.88;116804;1199;22311;-58
2021/09/26 05:35:03;;;;;;;15.10;4.90;;;;;;;12.70;82.23;99660.38;116782;1199;22453;-58
2021/09/26 05:37:35;;;;;;;16.30;5.30;;;;;;;12.69;82.17;99662.17;112353;1199;138624;-60
2021/09/26 05:40:04;;;;;;;13.10;5.30;;;;;;;12.71;81.99;99667.05;116650;1199;23207;-59
2021/09/26 05:42:33;;;;;;;13.20;4.70;;;;;;;12.73;81.85;99672.90;116651;1199;138462;-59
2021/09/26 05:45:02;;;;;;;15.50;5.40;;;;;;;12.75;81.86;99674.11;116723;1199;23194;-58
2021/09/26 05:47:29;;;;;;;21.40;5.10;;;;;;;12.77;81.68;99674.45;116739;1199;23907;-59
2021/09/26 05:49:57;;;;;;;13.60;4.90;;;;;;;12.79;81.54;99675.28;116735;1199;138083;-59
2021/09/26 05:52:25;;;;;;;15.60;4.20;;;;;;;12.80;81.46;99673.77;116788;1192;22305;-59
2021/09/26 05:54:53;;;;;;;16.10;6.30;;;;;;;12.81;81.24;99671.14;116730;1199;138167;-59
2021/09/26 05:57:21;;;;;;;9.00;4.60;;;;;;;12.84;81.19;99673.81;116790;1198;22206;-59
2021/09/26 05:59:49;;;;;;;14.70;4.70;;;;;;;12.84;81.22;99674.58;116810;1198;22286;-59
2021/09/26 06:02:23;;;;;;;14.00;5.20;;;;;;;12.86;80.68;99671.95;116694;1198;138865;-59
2021/09/26 06:04:51;;;;;;;17.40;5.40;;;;;;;12.88;80.81;99673.98;116739;1194;23266;-59
2021/09/26 06:07:19;;;;;;;16.60;4.70;;;;;;;12.93;80.87;99677.79;116697;1198;138218;-59
2021/09/26 06:09:48;;;;;;;13.70;4.20;;;;;;;12.97;80.61;99681.58;116812;1198;22320;-59
2021/09/26 06:12:16;;;;;;;14.60;4.90;;;;;;;13.01;80.04;99686.44;116631;1198;138239;-59
2021/09/26 06:14:44;;;;;;;13.50;4.30;;;;;;;13.03;79.67;99684.36;116787;1199;23050;-59
2021/09/26 06:17:12;;;;;;;15.40;3.90;;;;;;;13.06;79.34;99688.53;116738;1199;22274;-59
2021/09/26 06:19:40;;;;;;;24.20;4.90;;;;;;;13.09;78.82;99692.82;116741;1199;139320;-60
2021/09/26 06:22:08;;;;;;;13.40;4.10;;;;;;;13.10;78.34;99691.02;116706;1184;22325;-58
2021/09/26 06:24:36;;;;;;;15.60;4.30;;;;;;;13.12;78.15;99696.31;116676;1199;141764;-59
2021/09/26 06:27:04;;;;;;;13.30;4.30;;;;;;;13.12;78.00;99693.76;116706;1198;22310;-59
2021/09/26 06:29:32;;;;;;;19.20;5.20;;;;;;;13.14;77.92;99696.42;116739;1198;22339;-59
2021/09/26 06:32:00;;;;;;;10.00;4.10;;;;;;;13.16;77.80;99696.61;116703;1199;139544;-59
2021/09/26 06:34:28;;;;;;;15.90;4.70;;;;;;;13.19;77.91;99700.91;116723;1199;22266;-59
2021/09/26 06:36:57;;;;;;;13.50;4.50;;;;;;;13.24;78.11;99702.17;113526;1199;137996;-59
2021/09/26 06:39:25;;;;;;;16.60;4.80;;;;;;;13.33;78.03;99697.59;116736;1198;22460;-60
2021/09/26 06:41:53;;;;;;;18.00;4.40;;;;;;;13.39;78.07;99700.17;116784;1198;22466;-59
2021/09/26 06:44:21;;;;;;;16.20;4.80;;;;;;;13.46;77.82;99701.15;116743;1198;137966;-60
2021/09/26 06:46:49;;;;;;;18.20;5.00;;;;;;;13.52;77.67;99701.66;116799;1198;22391;-61
2021/09/26 06:49:17;;;;;;;13.60;4.80;;;;;;;13.57;77.50;99703.63;116779;1199;138188;-63
2021/09/26 06:51:45;;;;;;;14.50;4.60;;;;;;;13.63;76.98;99702.70;116843;1199;22327;-61
2021/09/26 06:54:13;;;;;;;18.30;5.10;;;;;;;13.69;76.34;99707.31;116709;1198;138590;-60
2021/09/26 06:56:41;;;;;;;16.50;4.40;;;;;;;13.73;76.21;99704.77;116726;1198;22328;-61
2021/09/26 06:59:09;;;;;;;12.80;4.50;;;;;;;13.78;76.26;99707.36;116851;1199;22335;-61
2021/09/26 07:01:37;;;;;;;21.60;5.20;;;;;;;13.83;75.78;99705.33;116527;1199;138322;-60
2021/09/26 07:04:06;;;;;;;16.40;4.80;;;;;;;13.88;75.78;99707.94;116710;1199;22256;-60
2021/09/26 07:06:36;;;;;;;15.20;4.10;;;;;;;13.93;75.74;99704.98;113952;1200;138276;-63
2021/09/26 07:09:04;;;;;;;16.50;4.50;;;;;;;13.98;75.64;99706.25;112434;1199;22468;-63
2021/09/26 07:11:33;;;;;;;18.60;4.50;;;;;;;14.03;74.68;99713.24;112382;1199;22420;-63
2021/09/26 07:14:01;;;;;;;11.10;3.80;;;;;;;14.04;74.26;99711.16;116713;1199;139203;-61
2021/09/26 07:16:29;;;;;;;12.10;4.60;;;;;;;14.06;73.99;99709.20;116897;1199;22247;-61
2021/09/26 07:18:57;;;;;;;20.90;4.40;;;;;;;14.10;73.73;99710.52;116720;1199;138295;-61
2021/09/26 07:21:25;;;;;;;16.00;4.40;;;;;;;14.13;73.54;99713.29;116853;1198;23020;-62
2021/09/26 07:23:53;;;;;;;15.20;4.50;;;;;;;14.16;73.11;99712.52;116854;1198;23687;-62
2021/09/26 07:26:21;;;;;;;13.90;4.60;;;;;;;14.19;72.77;99710.48;116717;1184;138208;-63
2021/09/26 07:28:49;;;;;;;13.00;3.60;;;;;;;14.22;73.13;99707.91;116927;1199;22422;-61
2021/09/26 07:31:17;;;;;;;16.80;4.30;;;;;;;14.29;72.49;99711.84;116602;1192;138372;-63
2021/09/26 07:33:45;;;;;;;15.60;4.30;;;;;;;14.32;71.97;99713.96;116847;1199;22373;-63
2021/09/26 07:36:13;;;;;;;19.20;4.50;;;;;;;14.36;71.95;99716.54;116750;1199;138368;-63
2021/09/26 07:38:41;;;;;;;13.00;3.80;;;;;;;14.41;71.37;99717.59;116841;1199;22300;-62
2021/09/26 07:41:09;;;;;;;12.80;4.10;;;;;;;14.47;70.69;99724.42;116901;1198;22294;-62
2021/09/26 07:43:38;;;;;;;13.30;4.30;;;;;;;14.49;70.66;99722.40;116744;1198;138742;-62
2021/09/26 07:46:06;;;;;;;14.50;4.50;;;;;;;14.55;70.70;99727.33;116943;1198;22472;-62
2021/09/26 07:48:34;;;;;;;14.00;3.90;;;;;;;14.60;70.72;99730.58;116708;1197;138446;-62
2021/09/26 07:51:02;;;;;;;17.80;4.60;;;;;;;14.68;69.86;99732.88;116885;1198;23073;-62
2021/09/26 07:53:30;;;;;;;12.90;3.70;;;;;;;14.74;69.72;99744.69;116833;1198;23035;-61
2021/09/26 07:55:59;;;;;;;14.80;4.80;;;;;;;14.80;68.33;99744.34;116729;1198;140092;-62
2021/09/26 07:58:27;;;;;;;15.70;4.60;;;;;;;14.81;68.15;99746.64;116916;1198;23349;-62
2021/09/26 08:00:56;;;;;;;17.30;4.60;;;;;;;14.83;67.96;99746.26;116620;1199;138194;-62
2021/09/26 08:03:29;;;;;;;13.80;4.20;;;;;;;14.88;68.11;99753.30;116915;1198;22960;-62
2021/09/26 08:05:58;;;;;;;11.60;4.30;;;;;;;14.90;67.06;99749.95;116715;1198;22309;-62
2021/09/26 08:08:25;;;;;;;15.60;5.00;;;;;;;14.89;67.06;99751.33;116735;1198;137841;-62
2021/09/26 08:10:54;;;;;;;14.40;4.00;;;;;;;14.87;67.43;99750.23;116796;1199;23138;-62
2021/09/26 08:13:22;;;;;;;14.90;3.80;;;;;;;14.84;67.29;99752.62;116752;1198;137822;-62
2021/09/26 08:15:50;;;;;;;14.50;3.70;;;;;;;14.84;67.00;99754.82;116919;1198;22308;-62
2021/09/26 08:18:19;;;;;;;17.30;4.90;;;;;;;14.82;66.69;99756.85;116700;1198;137993;-63
2021/09/26 08:20:47;;;;;;;14.10;3.50;;;;;;;14.82;66.56;99755.53;116855;1199;22399;-62
2021/09/26 08:23:15;;;;;;;11.50;3.80;;;;;;;14.82;66.65;99758.44;116864;1192;22304;-62
2021/09/26 08:25:55;;;;;;;17.00;3.50;;;;;;;14.84;65.74;99759.64;116721;1191;138511;-62
2021/09/26 08:28:24;;;;;;;12.20;3.70;;;;;;;14.89;65.87;99754.17;116897;1198;22424;-62
2021/09/26 08:30:52;;;;;;;13.90;4.10;;;;;;;14.97;65.75;99756.79;116714;1198;137807;-62
2021/09/26 08:33:23;;;;;;;11.90;3.80;;;;;;;15.06;65.17;99761.07;116899;1198;22950;-62
2021/09/26 08:35:51;;;;;;;12.50;3.90;;;;;;;15.13;63.97;99749.58;116868;1198;22307;-62
2021/09/26 08:38:19;;;;;;;9.70;3.60;;;;;;;15.18;63.52;99748.39;116637;1192;138993;-62
2021/09/26 08:40:50;;;;;;;10.60;3.80;;;;;;;15.24;63.03;99744.69;116884;1198;22296;-62
2021/09/26 08:43:20;;;;;;;15.40;3.70;;;;;;;15.28;63.26;99741.48;116774;1198;138273;-62
2021/09/26 08:45:48;;;;;;;20.90;5.40;;;;;;;15.34;63.65;99745.98;116737;1198;22210;-62
2021/09/26 08:48:16;;;;;;;13.60;4.20;;;;;;;15.40;63.72;99750.30;116634;1199;138410;-61
2021/09/26 08:50:45;;;;;;;11.60;3.50;;;;;;;15.41;62.72;99751.23;116751;1193;23197;-61
2021/09/26 08:53:14;;;;;;;16.40;4.30;;;;;;;15.37;62.32;99751.85;116814;1198;22357;-62
2021/09/26 08:55:43;;;;;;;16.20;3.90;;;;;;;15.34;62.89;99751.92;116699;1198;137837;-62
2021/09/26 08:58:11;;;;;;;13.50;4.20;;;;;;;15.37;63.36;99752.84;116897;1198;22325;-61
2021/09/26 09:03:13;;;;;;;14.20;3.70;;;;;;;15.54;62.40;99748.30;110881;1215;544862;-62
2021/09/26 09:05:42;;;;;;;12.90;3.60;;;;;;;15.61;62.48;99743.65;112138;1202;24044;-61
2021/09/26 09:08:17;;;;;;;18.60;4.30;;;;;;;15.69;62.16;99745.86;111782;1202;137483;-62
2021/09/26 09:10:49;;;;;;;10.50;3.10;;;;;;;15.77;61.50;99746.05;116201;1203;23231;-62
2021/09/26 09:13:27;;;;;;;14.70;3.60;;;;;;;15.82;60.22;99746.79;116106;1196;137027;-62
2021/09/26 09:16:00;;;;;;;11.60;3.80;;;;;;;15.82;60.16;99749.11;116165;1203;22386;-62
2021/09/26 09:18:56;;;;;;;15.90;3.80;;;;;;;15.83;60.74;99748.16;116049;1204;137510;-61
2021/09/26 09:21:29;;;;;;;15.60;3.80;;;;;;;15.87;59.72;99757.58;116646;1200;22410;-61
2021/09/26 09:24:10;;;;;;;11.80;3.20;;;;;;;15.89;58.77;99745.63;116859;1199;23137;-62
2021/09/26 09:26:38;;;;;;;14.70;4.00;;;;;;;15.90;58.95;99742.32;116630;1200;137187;-62
2021/09/26 09:29:06;;;;;;;12.00;3.20;;;;;;;15.92;58.94;99745.88;116765;1200;22524;-63
2021/09/26 09:31:35;;;;;;;12.80;3.50;;;;;;;15.95;58.80;99745.59;116679;1200;137295;-64
2021/09/26 09:34:04;;;;;;;11.40;3.60;;;;;;;15.96;58.50;99745.58;116547;1200;22342;-63
2021/09/26 09:36:33;;;;;;;9.00;2.90;;;;;;;15.92;57.98;99749.61;116592;1200;137161;-63
2021/09/26 09:39:06;;;;;;;12.00;3.90;;;;;;;15.84;57.88;99747.33;116708;1199;23543;-63
2021/09/26 09:41:44;;;;;;;14.00;3.80;;;;;;;15.79;58.48;99748.56;116655;1199;22387;-63
2021/09/26 09:44:13;;;;;;;15.50;4.40;;;;;;;15.81;59.40;99747.84;116568;1199;137288;-63
2021/09/26 09:46:46;;;;;;;12.70;3.60;;;;;;;15.84;58.71;99744.52;116617;1199;22349;-62
2021/09/26 09:49:17;;;;;;;12.60;3.10;;;;;;;15.85;57.99;99752.45;116547;1199;137752;-62
2021/09/26 09:51:59;;;;;;;9.50;3.00;;;;;;;15.84;57.40;99749.64;116687;1199;22326;-63
2021/09/26 09:54:29;;;;;;;10.60;3.80;;;;;;;15.84;57.21;99757.61;116543;1199;137103;-63
2021/09/26 09:56:58;;;;;;;11.70;3.40;;;;;;;15.81;57.92;99754.00;116734;1199;23046;-62
2021/09/26 09:59:32;;;;;;;10.70;3.30;;;;;;;15.80;58.31;99756.80;116651;1199;22795;-63
2021/09/26 10:02:00;;;;;;;12.10;3.10;;;;;;;15.83;57.44;99761.57;116596;1199;137219;-63
2021/09/26 10:04:39;;;;;;;9.20;2.80;;;;;;;15.85;57.12;99763.48;116728;1194;22315;-63
2021/09/26 10:07:17;;;;;;;11.90;3.40;;;;;;;15.89;57.05;99767.05;116612;1193;137646;-63
2021/09/26 10:09:45;;;;;;;15.30;3.40;;;;;;;15.96;57.00;99768.01;116772;1199;22801;-63
2021/09/26 10:12:20;;;;;;;13.60;3.30;;;;;;;16.02;56.63;99762.30;116716;1199;22951;-63
2021/09/26 10:14:53;;;;;;;10.30;3.40;;;;;;;16.07;56.72;99760.42;116543;1200;137018;-63
2021/09/26 10:17:21;;;;;;;10.70;3.00;;;;;;;16.10;56.96;99762.28;116736;1199;22322;-63
2021/09/26 10:19:49;;;;;;;9.70;2.90;;;;;;;16.13;55.88;99770.29;116615;1199;137846;-63
2021/09/26 10:22:17;;;;;;;11.10;3.50;;;;;;;16.12;55.27;99774.69;116744;1199;22336;-63
2021/09/26 10:24:47;;;;;;;10.20;3.10;;;;;;;16.09;55.92;99773.11;116516;1200;139144;-63
2021/09/26 10:27:21;;;;;;;13.80;3.40;;;;;;;16.06;56.30;99772.04;116766;1199;22328;-62
2021/09/26 10:29:53;;;;;;;10.40;3.90;;;;;;;16.04;56.72;99771.77;116698;1199;23163;-62
2021/09/26 10:32:21;;;;;;;11.70;3.60;;;;;;;16.00;56.58;99769.17;116512;1193;136951;-63
2021/09/26 10:34:49;;;;;;;19.40;4.10;;;;;;;15.97;56.98;99772.95;116613;1200;22355;-62
2021/09/26 10:37:17;;;;;;;9.80;3.60;;;;;;;16.00;56.79;99768.75;116590;1199;137293;-63
2021/09/26 10:39:47;;;;;;;11.50;3.00;;;;;;;16.02;56.54;99763.11;116777;1199;22381;-63
2021/09/26 10:42:21;;;;;;;9.70;2.90;;;;;;;16.08;55.97;99766.80;116473;1201;22259;-62
2021/09/26 10:44:54;;;;;;;13.60;3.20;;;;;;;16.09;55.04;99766.85;116634;1199;138816;-62
2021/09/26 10:47:22;;;;;;;11.90;3.40;;;;;;;16.06;55.36;99763.34;116800;1199;22414;-63
2021/09/26 10:49:54;;;;;;;10.20;2.90;;;;;;;16.05;55.91;99757.86;116648;1199;137337;-62
2021/09/26 10:52:28;;;;;;;12.40;3.10;;;;;;;16.05;56.49;99758.02;116636;1200;22306;-62
2021/09/26 10:55:23;;;;;;;8.20;2.80;;;;;;;16.05;55.93;99761.33;116430;1200;137178;-62
2021/09/26 10:57:59;;;;;;;8.80;3.30;;;;;;;16.04;55.22;99763.30;116796;1198;23482;-63
2021/09/26 11:00:32;;;;;;;15.50;3.30;;;;;;;16.02;55.27;99763.98;116746;1198;137601;-62
2021/09/26 11:03:08;;;;;;;12.30;3.30;;;;;;;16.03;55.16;99765.46;116895;1198;22375;-62
2021/09/26 11:05:40;;;;;;;9.80;2.90;;;;;;;16.05;55.36;99761.92;116885;1197;23307;-63
2021/09/26 11:08:41;;;;;;;12.20;4.00;;;;;;;16.09;55.14;99755.47;116700;1198;137706;-63
2021/09/26 11:11:10;;;;;;;8.40;2.90;;;;;;;16.16;55.54;99746.88;116901;1198;22429;-63
2021/09/26 11:13:38;;;;;;;11.00;3.10;;;;;;;16.25;55.96;99752.63;116469;1198;136953;-63
2021/09/26 11:16:13;;;;;;;9.00;2.70;;;;;;;16.33;54.67;99749.85;116915;1198;22299;-62
2021/09/26 11:18:50;;;;;;;8.60;3.20;;;;;;;16.35;54.54;99751.14;116760;1197;137688;-62
2021/09/26 11:21:39;;;;;;;8.00;2.90;;;;;;;16.37;54.45;99750.03;116889;1198;22417;-63
2021/09/26 11:24:22;;;;;;;9.60;3.30;;;;;;;16.38;55.19;99745.18;116871;1197;22311;-63
2021/09/26 11:26:56;;;;;;;7.20;2.30;;;;;;;16.43;55.46;99751.84;116793;1198;137006;-63
2021/09/26 11:29:41;;;;;;;6.50;2.50;;;;;;;16.49;55.15;99748.58;116865;1198;23378;-63
2021/09/26 11:32:12;;;;;;;8.60;3.00;;;;;;;16.54;54.87;99747.05;116786;1198;137325;-63
2021/09/26 11:34:42;;;;;;;9.50;2.90;;;;;;;16.58;54.48;99746.89;116713;1199;22338;-63